Flight Track Log - Related Links

Times and Time Zones

All times are in EDT time to prevent confusion due to time zone crossing. See the TAM3764 flight status page for this flight to view local times or setup timezone preferences in your user account.

Time Position Orientation Groundspeed Altitude Reporting Facility
EDT Latitude Longitude Course Direction KTS MPH feet Rate Location/Type
Sun 07:47:00 PM -23.4933 -48.9377 95° East  Level Estimated
Sun 07:48:00 PM -23.4993 -48.8462 94° East  Level Estimated
Sun 07:49:00 PM -23.5053 -48.7548 94° East  Level Estimated
Sun 07:50:00 PM -23.5112 -48.6633 94° East  Level Estimated
Sun 07:51:00 PM -23.5170 -48.5718 94° East  Level Estimated
Sun 07:52:00 PM -23.5228 -48.4803 94° East  Level Estimated
Sun 07:53:00 PM -23.5285 -48.3888 94° East  Level Estimated
Sun 07:54:00 PM -23.5341 -48.2973 94° East  Level Estimated
Sun 07:55:00 PM -23.5398 -48.2058 94° East  Level Estimated
Sun 07:56:00 PM -23.5453 -48.1143 94° East  Level Estimated
Sun 07:57:00 PM -23.5508 -48.0227 94° East  Level Estimated
Sun 07:58:00 PM -23.5563 -47.9312 94° East  Level Estimated
Sun 07:59:00 PM -23.5617 -47.8396 94° East  Level Estimated
Sun 08:00:00 PM -23.5670 -47.7481 94° East  Level Estimated
Sun 08:01:00 PM -23.5723 -47.6565 94° East  Level Estimated
Sun 08:02:00 PM -23.5776 -47.5650 94° East  Level Estimated
Sun 08:03:00 PM -23.5828 -47.4734 94° East  Level Estimated
Sun 08:04:00 PM -23.5879 -47.3818 94° East  Level Estimated
Sun 08:05:00 PM -23.5930 -47.2902 93° East  Level Estimated
Sun 08:06:00 PM -23.5980 -47.1986 93° East  Level Estimated
Sun 08:07:00 PM -23.6030 -47.1070 93° East  Level Estimated
Sun 08:08:00 PM -23.6079 -47.0154 93° East  Level Estimated
Sun 08:09:00 PM -23.6127 -46.9238 93° East  Level Estimated
Sun 08:10:00 PM -23.6176 -46.8321 93° East  Level Estimated
Sun 08:11:00 PM -23.6223 -46.7405 93° East  Level Estimated
Sun 08:12:00 PM -23.6267 -46.6554 93° East  Level Estimated
Sun 08:13:00 PM -23.6267 -46.6554 114° Southeast  Level Estimated
Sun 08:14:00 PM -23.6267 -46.6554 114° Southeast  Level Estimated
Sun 08:15:00 PM -23.6267 -46.6554 114° Southeast  Level Estimated
Sun 08:16:00 PM -23.6267 -46.6554 114° Southeast  Level Estimated
Sun 08:17:00 PM -23.6267 -46.6554 114° Southeast  Level Estimated
Sun 08:18:00 PM -23.6267 -46.6554 114° Southeast  Level Estimated
Sun 08:19:00 PM -23.6267 -46.6554 114° Southeast  Level Estimated
Sun 08:20:00 PM -23.6267 -46.6554 114° Southeast  Level Estimated
Sun 08:21:00 PM -23.6267 -46.6554 114° Southeast  Level Estimated
Sun 08:22:00 PM -23.6267 -46.6554 114° Southeast  Level Estimated
Sun 08:23:00 PM -23.6267 -46.6554 114° Southeast  Level Estimated
Sun 08:24:00 PM -23.6267 -46.6554 114° Southeast  Level Estimated
Sun 08:25:00 PM -23.6267 -46.6554 114° Southeast  Level Estimated
Sun 08:26:00 PM -23.6267 -46.6554 114° Southeast  Level Estimated
Sun 08:27:00 PM -23.6267 -46.6554 114° Southeast  Level Estimated
Sun 08:28:00 PM -23.6267 -46.6554 114° Southeast  Level Estimated

Login

Don't have an account? Register now (free) for customized features, flight alerts, and more!